createdAt,value
2017-12-03T00:00:26.966Z,85.91
2017-12-03T00:01:31.743Z,86.21
2017-12-03T00:02:36.807Z,86.72
2017-12-03T00:03:42.578Z,88.71
2017-12-03T00:04:47.251Z,88.71
2017-12-03T00:05:52.496Z,87.57
2017-12-03T00:06:57.201Z,87.58
2017-12-03T00:08:01.888Z,88.16
2017-12-03T00:09:06.574Z,87.93
2017-12-03T00:10:11.493Z,88.55
2017-12-03T00:11:16.218Z,88.44
2017-12-03T00:12:21.450Z,89.11
2017-12-03T00:13:26.099Z,89.43
2017-12-03T00:14:30.730Z,88.09
2017-12-03T00:15:35.415Z,88.68
2017-12-03T00:16:40.167Z,89.38
2017-12-03T00:17:44.899Z,89.80
2017-12-03T00:18:50.145Z,89.38
2017-12-03T00:19:54.903Z,89.84
2017-12-03T00:20:59.654Z,89.53
2017-12-03T00:22:04.377Z,89.12
2017-12-03T00:23:08.987Z,89.14
2017-12-03T00:24:13.611Z,89.58
2017-12-03T00:25:18.920Z,89.46
2017-12-03T00:26:23.572Z,88.91
2017-12-03T00:27:28.325Z,88.92
2017-12-03T00:28:32.996Z,90.39
2017-12-03T00:29:37.704Z,89.07
2017-12-03T00:30:42.331Z,88.86
2017-12-03T00:31:47.391Z,88.48
2017-12-03T00:32:51.996Z,89.56
2017-12-03T00:33:56.639Z,89.02
2017-12-03T00:35:01.316Z,89.30
2017-12-03T00:36:06.029Z,88.86
2017-12-03T00:37:10.786Z,87.44
2017-12-03T00:38:16.004Z,88.39
2017-12-03T00:39:20.784Z,88.96
2017-12-03T00:40:25.482Z,89.13
2017-12-03T00:41:30.187Z,88.37
2017-12-03T00:42:34.904Z,87.86
2017-12-03T00:43:39.609Z,87.51
2017-12-03T00:44:44.711Z,87.87
2017-12-03T00:45:49.456Z,88.31
2017-12-03T00:46:54.224Z,87.45
2017-12-03T00:47:58.944Z,88.17
2017-12-03T00:49:03.729Z,88.62
2017-12-03T00:50:08.551Z,89.11
2017-12-03T00:51:13.667Z,89.45
2017-12-03T00:52:18.439Z,88.51
2017-12-03T00:53:23.165Z,89.28
2017-12-03T00:54:27.914Z,88.50
2017-12-03T00:55:32.668Z,88.89
2017-12-03T00:56:37.386Z,88.95
2017-12-03T00:57:42.651Z,88.39
2017-12-03T00:58:47.432Z,88.54
2017-12-03T00:59:52.205Z,87.97
2017-12-03T01:00:56.970Z,89.61
2017-12-03T01:02:01.708Z,89.69
2017-12-03T01:03:06.468Z,88.77
2017-12-03T01:04:11.695Z,89.51
2017-12-03T01:05:16.419Z,90.12
2017-12-03T01:06:21.225Z,88.79
2017-12-03T01:07:26.015Z,88.91
2017-12-03T01:08:30.736Z,89.90
2017-12-03T01:09:35.493Z,90.03
2017-12-03T01:10:40.270Z,90.18
2017-12-03T01:11:45.016Z,89.84
2017-12-03T01:12:49.726Z,89.71
2017-12-03T01:13:54.440Z,90.15
2017-12-03T01:14:59.160Z,90.09
2017-12-03T01:16:04.464Z,89.30
2017-12-03T01:17:09.361Z,89.25
2017-12-03T01:18:14.146Z,89.11
2017-12-03T01:19:18.690Z,88.84
2017-12-03T01:20:23.338Z,88.53
2017-12-03T01:21:27.920Z,88.77
2017-12-03T01:22:32.977Z,89.78
2017-12-03T01:23:37.641Z,89.98
2017-12-03T01:24:42.250Z,89.39
2017-12-03T01:25:46.949Z,89.01
2017-12-03T01:26:51.541Z,89.63
2017-12-03T01:27:56.183Z,89.18
2017-12-03T01:29:01.045Z,89.54
2017-12-03T01:30:05.752Z,90.60
2017-12-03T01:31:10.472Z,90.59
2017-12-03T01:32:15.180Z,90.64
2017-12-03T01:33:19.912Z,90.93
2017-12-03T01:34:24.922Z,90.81
2017-12-03T01:35:29.697Z,90.37
2017-12-03T01:36:34.409Z,90.09
2017-12-03T01:37:39.100Z,90.02
2017-12-03T01:38:43.793Z,89.89
2017-12-03T01:39:48.534Z,90.67
2017-12-03T01:40:54.519Z,90.64
2017-12-03T01:41:59.222Z,90.80
2017-12-03T01:43:03.909Z,91.00
2017-12-03T01:44:08.573Z,90.67
2017-12-03T01:45:13.123Z,90.77
2017-12-03T01:46:17.711Z,90.88
2017-12-03T01:47:22.699Z,90.83
2017-12-03T01:48:27.379Z,91.01
2017-12-03T01:49:32.126Z,90.09
2017-12-03T01:50:36.712Z,90.16
2017-12-03T01:51:41.347Z,90.16
2017-12-03T01:52:45.982Z,89.52
2017-12-03T01:53:51.067Z,90.03
2017-12-03T01:54:56.719Z,89.66
2017-12-03T01:56:01.352Z,89.96
2017-12-03T01:57:06.043Z,90.22
2017-12-03T01:58:10.673Z,89.32
2017-12-03T01:59:15.993Z,89.90
2017-12-03T02:00:20.793Z,90.46
2017-12-03T02:01:25.265Z,90.52
2017-12-03T02:02:29.866Z,91.73
2017-12-03T02:03:34.490Z,91.70
2017-12-03T02:04:39.043Z,90.14
2017-12-03T02:05:43.696Z,90.04
2017-12-03T02:06:48.835Z,89.47
2017-12-03T02:07:53.457Z,90.24
2017-12-03T02:08:58.133Z,90.86
2017-12-03T02:10:02.841Z,90.61
2017-12-03T02:11:07.615Z,89.86
2017-12-03T02:12:12.277Z,89.85
2017-12-03T02:13:17.283Z,90.46
2017-12-03T02:14:21.960Z,90.47
2017-12-03T02:15:26.610Z,90.18
2017-12-03T02:16:31.464Z,89.44
2017-12-03T02:17:36.132Z,89.90
2017-12-03T02:18:40.881Z,90.42
2017-12-03T02:19:46.088Z,89.51
2017-12-03T02:20:50.913Z,89.27
2017-12-03T02:21:55.674Z,89.69
2017-12-03T02:23:00.489Z,90.02
2017-12-03T02:24:05.330Z,90.85
2017-12-03T02:25:10.057Z,91.11
2017-12-03T02:26:15.198Z,91.20
2017-12-03T02:27:19.989Z,90.56
2017-12-03T02:28:24.765Z,90.37
2017-12-03T02:29:29.483Z,91.11
2017-12-03T02:30:34.207Z,90.73
2017-12-03T02:31:38.921Z,90.66
2017-12-03T02:32:44.213Z,90.95
2017-12-03T02:33:49.164Z,90.06
2017-12-03T02:34:53.884Z,91.31
2017-12-03T02:35:58.601Z,90.48
2017-12-03T02:37:03.399Z,90.21
2017-12-03T02:38:08.129Z,90.21
2017-12-03T02:39:13.249Z,91.00
2017-12-03T02:40:17.985Z,90.96
2017-12-03T02:41:22.717Z,90.68
2017-12-03T02:42:27.295Z,90.50
2017-12-03T02:43:31.896Z,90.62
2017-12-03T02:44:36.697Z,90.70
2017-12-03T02:45:42.065Z,90.37
2017-12-03T02:46:46.816Z,90.88
2017-12-03T02:47:51.527Z,90.37
2017-12-03T02:48:56.544Z,90.49
2017-12-03T02:50:01.283Z,91.30
2017-12-03T02:51:06.364Z,90.87
2017-12-03T02:52:11.105Z,91.27
2017-12-03T02:53:15.931Z,91.18
2017-12-03T02:54:21.069Z,90.84
2017-12-03T02:55:25.897Z,90.78
2017-12-03T02:56:30.682Z,90.22
2017-12-03T02:57:35.877Z,90.19
2017-12-03T02:58:40.667Z,90.29
2017-12-03T02:59:45.385Z,90.78
2017-12-03T03:00:50.250Z,90.77
2017-12-03T03:01:55.065Z,90.56
2017-12-03T03:02:59.789Z,90.54
2017-12-03T03:04:05.078Z,91.45
2017-12-03T03:05:10.078Z,91.90
2017-12-03T03:06:14.837Z,91.82
2017-12-03T03:07:19.696Z,91.73
2017-12-03T03:08:24.429Z,91.30
2017-12-03T03:09:29.221Z,91.36
2017-12-03T03:10:34.517Z,90.83
2017-12-03T03:11:39.265Z,90.60
2017-12-03T03:12:44.014Z,91.12
2017-12-03T03:13:48.820Z,90.88
2017-12-03T03:14:53.510Z,90.55
2017-12-03T03:15:58.207Z,90.67
2017-12-03T03:17:03.346Z,90.77
2017-12-03T03:18:08.080Z,90.86
2017-12-03T03:19:12.807Z,91.38
2017-12-03T03:20:17.554Z,91.21
2017-12-03T03:21:22.253Z,91.36
2017-12-03T03:22:26.984Z,91.49
2017-12-03T03:23:32.069Z,91.13
2017-12-03T03:24:36.810Z,91.55
2017-12-03T03:25:41.606Z,92.05
2017-12-03T03:26:46.399Z,91.57
2017-12-03T03:27:51.153Z,90.94
2017-12-03T03:28:55.872Z,91.14
2017-12-03T03:30:00.606Z,90.92
2017-12-03T03:31:05.359Z,91.10
2017-12-03T03:32:10.096Z,91.16
2017-12-03T03:33:14.813Z,90.52
2017-12-03T03:34:19.559Z,90.48
2017-12-03T03:35:24.769Z,90.87
2017-12-03T03:36:29.568Z,90.84
2017-12-03T03:37:34.288Z,90.85
2017-12-03T03:38:39.060Z,90.65
2017-12-03T03:39:43.781Z,90.53
2017-12-03T03:40:48.490Z,91.26
2017-12-03T03:41:53.716Z,90.25
2017-12-03T03:42:58.482Z,90.79
2017-12-03T03:44:03.111Z,90.74
2017-12-03T03:45:07.786Z,90.88
2017-12-03T03:46:12.426Z,91.01
2017-12-03T03:47:17.092Z,90.48
2017-12-03T03:48:22.200Z,90.92
2017-12-03T03:49:26.934Z,91.38
2017-12-03T03:50:31.893Z,91.55
2017-12-03T03:51:36.619Z,91.04
2017-12-03T03:52:41.385Z,91.49
2017-12-03T03:53:46.159Z,91.93
2017-12-03T03:54:51.312Z,91.30
2017-12-03T03:55:56.034Z,91.40
2017-12-03T03:57:00.818Z,91.23
2017-12-03T03:58:05.635Z,90.76
2017-12-03T03:59:10.401Z,90.71
2017-12-03T04:00:15.291Z,90.56
2017-12-03T04:01:20.461Z,90.69
2017-12-03T04:02:25.236Z,91.59
2017-12-03T04:03:30.030Z,90.85
2017-12-03T04:04:34.877Z,91.45
2017-12-03T04:05:39.635Z,90.86
2017-12-03T04:06:44.340Z,90.90
2017-12-03T04:07:49.508Z,91.12
2017-12-03T04:08:54.261Z,91.48
2017-12-03T04:09:59.000Z,90.86
2017-12-03T04:11:03.810Z,91.33
2017-12-03T04:12:08.607Z,91.02
2017-12-03T04:13:13.396Z,90.25
2017-12-03T04:14:18.685Z,90.99
2017-12-03T04:15:23.453Z,90.39
2017-12-03T04:16:28.227Z,90.93
2017-12-03T04:17:33.008Z,91.08
2017-12-03T04:18:37.739Z,90.36
2017-12-03T04:19:42.540Z,90.57
2017-12-03T04:20:47.828Z,91.14
2017-12-03T04:21:52.814Z,91.36
2017-12-03T04:22:57.554Z,91.61
2017-12-03T04:24:02.330Z,91.25
2017-12-03T04:25:07.079Z,91.17
2017-12-03T04:26:11.801Z,90.82
2017-12-03T04:27:17.017Z,91.07
2017-12-03T04:28:21.754Z,91.10
2017-12-03T04:29:26.568Z,90.48
2017-12-03T04:30:32.391Z,91.15
2017-12-03T04:31:37.202Z,90.57
2017-12-03T04:32:42.202Z,90.88
2017-12-03T04:33:47.465Z,90.58
2017-12-03T04:34:52.359Z,91.35
2017-12-03T04:35:57.149Z,90.89
2017-12-03T04:37:02.093Z,91.52
2017-12-03T04:38:06.798Z,91.93
2017-12-03T04:39:11.708Z,90.36
2017-12-03T04:40:17.008Z,90.19
2017-12-03T04:41:21.739Z,90.07
2017-12-03T04:42:26.576Z,90.77
2017-12-03T04:43:31.357Z,90.19
2017-12-03T04:44:36.276Z,90.66
2017-12-03T04:45:41.038Z,90.33
2017-12-03T04:46:46.385Z,89.69
2017-12-03T04:47:51.159Z,89.82
2017-12-03T04:48:55.908Z,89.09
2017-12-03T04:50:00.636Z,89.27
2017-12-03T04:51:05.491Z,90.21
2017-12-03T04:52:10.509Z,89.52
2017-12-03T04:53:15.575Z,89.62
2017-12-03T04:54:20.332Z,89.76
2017-12-03T04:55:25.107Z,89.72
2017-12-03T04:56:29.839Z,89.14
2017-12-03T04:57:34.686Z,89.87
2017-12-03T04:58:39.499Z,89.85
2017-12-03T04:59:44.820Z,89.31
2017-12-03T05:00:49.578Z,89.84
2017-12-03T05:01:54.229Z,90.02
2017-12-03T05:02:59.025Z,90.13
2017-12-03T05:04:03.659Z,89.74
2017-12-03T05:05:08.268Z,89.29
2017-12-03T05:06:12.882Z,89.71
2017-12-03T05:07:17.677Z,89.21
2017-12-03T05:08:22.649Z,88.91
2017-12-03T05:09:27.609Z,89.43
2017-12-03T05:10:32.456Z,89.67
2017-12-03T05:11:37.247Z,89.50
2017-12-03T05:12:42.431Z,89.01
2017-12-03T05:13:47.211Z,89.63
2017-12-03T05:14:51.919Z,89.16
2017-12-03T05:15:56.677Z,90.65
2017-12-03T05:17:01.385Z,90.63
2017-12-03T05:18:06.126Z,90.51
2017-12-03T05:19:11.253Z,90.32
2017-12-03T05:20:16.036Z,90.43
2017-12-03T05:21:20.812Z,90.76
2017-12-03T05:22:25.634Z,90.37
2017-12-03T05:23:30.383Z,90.14
2017-12-03T05:24:35.143Z,89.90
2017-12-03T05:25:40.902Z,90.09
2017-12-03T05:26:45.617Z,90.51
2017-12-03T05:27:50.392Z,90.94
2017-12-03T05:28:55.242Z,90.84
2017-12-03T05:29:59.977Z,91.07
2017-12-03T05:31:04.691Z,91.40
2017-12-03T05:32:09.790Z,91.90
2017-12-03T05:33:14.378Z,91.64
2017-12-03T05:34:18.970Z,91.89
2017-12-03T05:35:23.726Z,92.04
2017-12-03T05:36:28.515Z,91.14
2017-12-03T05:37:33.250Z,91.51
2017-12-03T05:38:38.439Z,92.00
2017-12-03T05:39:43.200Z,92.03
2017-12-03T05:40:47.958Z,91.92
2017-12-03T05:41:52.692Z,92.55
2017-12-03T05:42:57.493Z,91.86
2017-12-03T05:44:02.239Z,91.40
2017-12-03T05:45:07.329Z,92.55
2017-12-03T05:46:12.069Z,91.63
2017-12-03T05:47:16.828Z,91.56
2017-12-03T05:48:21.569Z,91.35
2017-12-03T05:49:26.346Z,91.75
2017-12-03T05:50:31.608Z,91.47
2017-12-03T05:51:36.845Z,91.00
2017-12-03T05:52:42.206Z,91.61
2017-12-03T05:53:46.924Z,91.71
2017-12-03T05:54:51.668Z,92.25
2017-12-03T05:55:56.420Z,91.14
2017-12-03T05:57:01.404Z,91.51
2017-12-03T05:58:07.453Z,91.63
2017-12-03T05:59:12.240Z,91.44
2017-12-03T06:00:17.052Z,91.89
2017-12-03T06:01:21.857Z,91.34
2017-12-03T06:02:26.651Z,92.00
2017-12-03T06:03:31.353Z,91.14
2017-12-03T06:04:36.826Z,91.34
2017-12-03T06:05:41.625Z,91.18
2017-12-03T06:06:46.369Z,91.03
2017-12-03T06:07:51.174Z,90.86
2017-12-03T06:08:55.893Z,90.86
2017-12-03T06:10:00.636Z,91.66
2017-12-03T06:11:05.723Z,90.88
2017-12-03T06:12:10.466Z,90.82
2017-12-03T06:13:15.239Z,90.45
2017-12-03T06:14:19.870Z,90.80
2017-12-03T06:15:24.685Z,90.77
2017-12-03T06:16:29.477Z,90.63
2017-12-03T06:17:34.561Z,90.53
2017-12-03T06:18:39.522Z,90.82
2017-12-03T06:19:44.410Z,91.22
2017-12-03T06:20:49.102Z,91.35
2017-12-03T06:21:53.913Z,90.74
2017-12-03T06:22:58.712Z,90.00
2017-12-03T06:24:03.927Z,90.43
2017-12-03T06:25:08.862Z,90.93
2017-12-03T06:26:13.631Z,91.22
2017-12-03T06:27:18.444Z,90.32
2017-12-03T06:28:23.328Z,90.42
2017-12-03T06:29:28.076Z,90.42
2017-12-03T06:30:33.149Z,90.61
2017-12-03T06:31:37.934Z,91.35
2017-12-03T06:32:42.710Z,91.33
2017-12-03T06:33:47.760Z,91.17
2017-12-03T06:34:52.624Z,91.86
2017-12-03T06:35:57.442Z,91.89
2017-12-03T06:37:02.580Z,90.49
2017-12-03T06:38:07.776Z,90.94
2017-12-03T06:39:14.781Z,91.50
2017-12-03T06:40:19.686Z,90.76
2017-12-03T06:41:24.532Z,91.54
2017-12-03T06:42:29.413Z,91.35
2017-12-03T06:43:34.496Z,90.73
2017-12-03T06:44:39.268Z,90.91
2017-12-03T06:45:44.036Z,90.65
2017-12-03T06:46:48.810Z,90.74
2017-12-03T06:47:53.540Z,90.76
2017-12-03T06:48:58.388Z,90.51
2017-12-03T06:50:03.184Z,91.07
2017-12-03T06:51:08.239Z,91.49
2017-12-03T06:52:13.019Z,91.29
2017-12-03T06:53:17.802Z,91.71
2017-12-03T06:54:22.615Z,91.08
2017-12-03T06:55:27.698Z,91.01
2017-12-03T06:56:32.353Z,91.27
2017-12-03T06:57:37.057Z,91.49
2017-12-03T06:58:41.721Z,91.20
2017-12-03T06:59:46.452Z,91.10
2017-12-03T07:00:51.070Z,91.02
2017-12-03T07:01:56.088Z,91.37
2017-12-03T07:03:00.856Z,91.59
2017-12-03T07:04:05.530Z,91.49
2017-12-03T07:05:10.264Z,91.53
2017-12-03T07:06:14.949Z,91.48
2017-12-03T07:07:19.649Z,91.54
2017-12-03T07:08:24.711Z,91.56
2017-12-03T07:09:29.450Z,91.73
2017-12-03T07:10:34.193Z,91.64
2017-12-03T07:11:38.944Z,91.14
2017-12-03T07:12:43.621Z,91.73
2017-12-03T07:13:48.318Z,92.01
2017-12-03T07:14:53.485Z,92.16
2017-12-03T07:15:58.185Z,92.34
2017-12-03T07:17:03.138Z,92.12
2017-12-03T07:18:07.859Z,92.62
2017-12-03T07:19:12.568Z,92.14
2017-12-03T07:20:17.458Z,91.74
2017-12-03T07:21:22.693Z,91.62
2017-12-03T07:22:27.542Z,91.66
2017-12-03T07:23:32.288Z,91.95
2017-12-03T07:24:37.550Z,91.69
2017-12-03T07:25:42.301Z,92.12
2017-12-03T07:26:47.145Z,91.63
2017-12-03T07:27:51.883Z,92.00
2017-12-03T07:28:56.677Z,92.25
2017-12-03T07:30:01.440Z,91.75
2017-12-03T07:31:06.216Z,92.25
2017-12-03T07:32:11.036Z,92.68
2017-12-03T07:33:16.041Z,92.43
2017-12-03T07:34:21.338Z,92.55
2017-12-03T07:35:26.184Z,92.95
2017-12-03T07:36:30.842Z,92.36
2017-12-03T07:37:35.787Z,92.50
2017-12-03T07:38:40.930Z,92.47
2017-12-03T07:39:46.050Z,92.95
2017-12-03T07:40:51.590Z,92.84
2017-12-03T07:41:57.065Z,92.31
2017-12-03T07:43:01.837Z,93.12
2017-12-03T07:44:06.851Z,92.10
2017-12-03T07:45:11.657Z,92.68
2017-12-03T07:46:16.703Z,92.61
2017-12-03T07:47:21.897Z,92.24
2017-12-03T07:48:26.626Z,92.83
2017-12-03T07:49:31.449Z,92.26
2017-12-03T07:50:36.218Z,92.68
2017-12-03T07:51:41.147Z,92.95
2017-12-03T07:52:46.290Z,92.49
2017-12-03T07:53:51.859Z,92.29
2017-12-03T07:54:56.608Z,92.45
2017-12-03T07:56:01.407Z,91.91
2017-12-03T07:57:06.269Z,92.25
2017-12-03T07:58:11.080Z,92.19
2017-12-03T07:59:15.882Z,91.39
2017-12-03T08:00:21.825Z,91.76
2017-12-03T08:01:26.651Z,91.84
2017-12-03T08:02:31.422Z,91.26
2017-12-03T08:03:36.285Z,91.47
2017-12-03T08:04:41.073Z,91.44
2017-12-03T08:05:45.725Z,91.57
2017-12-03T08:06:50.879Z,92.35
2017-12-03T08:07:55.565Z,92.54
2017-12-03T08:09:00.240Z,91.40
2017-12-03T08:10:04.924Z,91.30
2017-12-03T08:11:09.594Z,91.75
2017-12-03T08:12:14.304Z,91.56
2017-12-03T08:13:19.421Z,91.26
2017-12-03T08:14:24.168Z,90.89
2017-12-03T08:15:28.851Z,91.13
2017-12-03T08:16:33.628Z,91.05
2017-12-03T08:17:38.234Z,91.43
2017-12-03T08:18:43.197Z,91.79
2017-12-03T08:19:48.105Z,91.34
2017-12-03T08:20:52.657Z,91.09
2017-12-03T08:21:57.284Z,90.88
2017-12-03T08:23:02.042Z,91.60
2017-12-03T08:24:06.806Z,91.61
2017-12-03T08:25:11.469Z,92.01
2017-12-03T08:26:16.641Z,92.22
2017-12-03T08:27:21.325Z,91.95
2017-12-03T08:28:26.069Z,92.01
2017-12-03T08:29:30.793Z,91.96
2017-12-03T08:30:35.325Z,91.68
2017-12-03T08:31:39.892Z,92.26
2017-12-03T08:32:44.848Z,91.73
2017-12-03T08:33:49.562Z,92.42
2017-12-03T08:34:54.240Z,92.58
2017-12-03T08:35:58.905Z,91.36
2017-12-03T08:37:03.639Z,91.83
2017-12-03T08:38:08.516Z,91.61
2017-12-03T08:39:13.236Z,91.07
2017-12-03T08:40:17.945Z,91.03
2017-12-03T08:41:22.616Z,92.15
2017-12-03T08:42:27.504Z,91.11
2017-12-03T08:43:32.224Z,91.80
2017-12-03T08:44:38.724Z,92.60
2017-12-03T08:45:44.048Z,92.61
2017-12-03T08:46:48.829Z,91.65
2017-12-03T08:47:53.536Z,90.79
2017-12-03T08:48:58.207Z,91.50
2017-12-03T08:50:03.254Z,91.11
2017-12-03T08:51:08.168Z,92.66
2017-12-03T08:52:13.783Z,91.94
2017-12-03T08:53:18.567Z,92.49
2017-12-03T08:54:23.216Z,92.05
2017-12-03T08:55:27.956Z,92.44
2017-12-03T08:56:32.610Z,92.64
2017-12-03T08:57:37.716Z,92.66
2017-12-03T08:58:42.367Z,93.22
2017-12-03T08:59:47.065Z,93.32
2017-12-03T09:00:51.634Z,93.07
2017-12-03T09:01:56.382Z,92.99
2017-12-03T09:03:01.114Z,93.37
2017-12-03T09:04:06.116Z,93.47
2017-12-03T09:05:10.806Z,93.43
2017-12-03T09:06:15.437Z,92.90
2017-12-03T09:07:20.255Z,92.95
2017-12-03T09:08:25.021Z,92.73
2017-12-03T09:09:29.707Z,92.65
2017-12-03T09:10:34.761Z,93.22
2017-12-03T09:11:39.607Z,93.55
2017-12-03T09:12:44.404Z,93.69
2017-12-03T09:13:49.292Z,93.05
2017-12-03T09:14:54.317Z,92.53
2017-12-03T09:15:59.221Z,93.02
2017-12-03T09:17:04.343Z,93.03
2017-12-03T09:18:09.114Z,93.17
2017-12-03T09:19:13.921Z,92.78
2017-12-03T09:20:18.705Z,92.56
2017-12-03T09:21:23.474Z,92.59
2017-12-03T09:22:28.355Z,92.49
2017-12-03T09:23:33.480Z,92.68
2017-12-03T09:24:38.382Z,92.51
2017-12-03T09:25:43.145Z,92.09
2017-12-03T09:26:47.964Z,92.64
2017-12-03T09:27:52.773Z,91.64
2017-12-03T09:28:57.608Z,91.82
2017-12-03T09:30:02.580Z,91.64
2017-12-03T09:31:08.317Z,91.68
2017-12-03T09:32:13.029Z,91.55
2017-12-03T09:33:17.757Z,91.64
2017-12-03T09:34:22.667Z,92.21
2017-12-03T09:35:27.527Z,91.66
2017-12-03T09:36:32.432Z,91.78
2017-12-03T09:37:37.130Z,91.88
2017-12-03T09:38:41.973Z,91.89
2017-12-03T09:39:46.807Z,90.87
2017-12-03T09:40:51.600Z,91.03
2017-12-03T09:41:56.427Z,91.35
2017-12-03T09:43:01.643Z,91.69
2017-12-03T09:44:06.410Z,92.10
2017-12-03T09:45:11.084Z,92.07
2017-12-03T09:46:15.826Z,91.83
2017-12-03T09:47:20.674Z,91.37
2017-12-03T09:48:25.522Z,91.04
2017-12-03T09:49:30.657Z,91.85
2017-12-03T09:50:35.440Z,90.96
2017-12-03T09:51:40.228Z,91.25
2017-12-03T09:52:45.082Z,90.87
2017-12-03T09:53:49.897Z,90.42
2017-12-03T09:54:54.931Z,90.57
2017-12-03T09:56:00.138Z,91.29
2017-12-03T09:57:04.953Z,90.73
2017-12-03T09:58:09.933Z,90.82
2017-12-03T09:59:14.712Z,90.74
2017-12-03T10:00:19.534Z,90.24
2017-12-03T10:01:24.338Z,91.03
2017-12-03T10:02:29.510Z,90.98
2017-12-03T10:03:34.273Z,90.89
2017-12-03T10:04:39.080Z,91.13
2017-12-03T10:05:44.536Z,90.73
2017-12-03T10:06:49.366Z,90.59
2017-12-03T10:07:54.120Z,90.46
2017-12-03T10:08:59.244Z,90.91
2017-12-03T10:10:04.507Z,91.04
2017-12-03T10:11:10.052Z,90.66
2017-12-03T10:12:14.928Z,91.29
2017-12-03T10:13:19.681Z,91.05
2017-12-03T10:14:24.551Z,91.51
2017-12-03T10:15:29.553Z,91.71
2017-12-03T10:16:34.330Z,91.50
2017-12-03T10:17:39.078Z,91.25
2017-12-03T10:18:43.858Z,91.65
2017-12-03T10:19:48.654Z,91.82
2017-12-03T10:20:53.413Z,92.13
2017-12-03T10:21:58.509Z,92.38
2017-12-03T10:23:03.250Z,91.78
2017-12-03T10:24:08.142Z,91.63
2017-12-03T10:25:12.862Z,91.41
2017-12-03T10:26:17.622Z,91.21
2017-12-03T10:27:22.450Z,91.19
2017-12-03T10:28:27.608Z,91.80
2017-12-03T10:29:32.509Z,91.87
2017-12-03T10:30:37.260Z,91.75
2017-12-03T10:31:42.065Z,91.43
2017-12-03T10:32:46.860Z,91.71
2017-12-03T10:33:51.546Z,92.31
2017-12-03T10:34:56.576Z,92.49
2017-12-03T10:36:01.305Z,92.29
2017-12-03T10:37:06.058Z,92.55
2017-12-03T10:38:15.031Z,92.32
2017-12-03T10:39:19.745Z,92.60
2017-12-03T10:40:24.532Z,91.96
2017-12-03T10:41:29.543Z,91.93
2017-12-03T10:42:34.864Z,92.29
2017-12-03T10:43:39.598Z,92.07
2017-12-03T10:44:44.310Z,91.71
2017-12-03T10:45:48.997Z,91.57
2017-12-03T10:46:53.703Z,91.19
2017-12-03T10:47:58.687Z,91.33
2017-12-03T10:49:03.390Z,90.48
2017-12-03T10:50:08.154Z,90.58
2017-12-03T10:51:12.911Z,91.20
2017-12-03T10:52:17.709Z,91.82
2017-12-03T10:53:22.420Z,91.86
2017-12-03T10:54:27.494Z,91.81
2017-12-03T10:55:32.177Z,91.88
2017-12-03T10:56:36.956Z,91.25
2017-12-03T10:57:41.645Z,90.95
2017-12-03T10:58:46.338Z,91.60
2017-12-03T10:59:51.128Z,91.82
2017-12-03T11:00:56.455Z,91.29
2017-12-03T11:02:01.146Z,91.91
2017-12-03T11:03:05.920Z,92.15
2017-12-03T11:04:10.680Z,92.83
2017-12-03T11:05:15.468Z,92.64
2017-12-03T11:06:20.143Z,92.74
2017-12-03T11:07:25.161Z,92.86
2017-12-03T11:08:29.960Z,93.01
2017-12-03T11:09:34.677Z,92.79
2017-12-03T11:10:39.412Z,92.75
2017-12-03T11:11:44.213Z,93.24
2017-12-03T11:12:48.980Z,92.06
2017-12-03T11:13:53.956Z,92.39
2017-12-03T11:14:58.642Z,91.92
2017-12-03T11:16:03.318Z,91.53
2017-12-03T11:17:08.099Z,91.47
2017-12-03T11:18:13.047Z,91.73
2017-12-03T11:19:17.735Z,92.37
2017-12-03T11:20:22.757Z,91.99
2017-12-03T11:21:27.456Z,91.48
2017-12-03T11:22:32.170Z,91.96
2017-12-03T11:23:36.890Z,92.07
2017-12-03T11:24:42.714Z,92.92
2017-12-03T11:25:47.467Z,92.92
2017-12-03T11:26:52.503Z,92.28
2017-12-03T11:27:57.323Z,91.34
2017-12-03T11:29:02.031Z,91.08
2017-12-03T11:30:06.751Z,91.09
2017-12-03T11:31:11.595Z,91.43
2017-12-03T11:32:16.548Z,92.01
2017-12-03T11:33:21.638Z,90.81
2017-12-03T11:34:26.418Z,91.27
2017-12-03T11:35:32.055Z,92.04
2017-12-03T11:36:36.778Z,91.59
2017-12-03T11:37:41.398Z,92.24
2017-12-03T11:38:46.238Z,92.18
2017-12-03T11:39:51.310Z,92.46
2017-12-03T11:40:55.895Z,92.08
2017-12-03T11:42:00.618Z,92.21
2017-12-03T11:43:05.313Z,92.59
2017-12-03T11:44:09.983Z,92.06
2017-12-03T11:45:14.628Z,92.29
2017-12-03T11:46:20.556Z,93.01
2017-12-03T11:47:25.239Z,92.92
2017-12-03T11:48:29.922Z,93.36
2017-12-03T11:49:34.605Z,93.59
2017-12-03T11:50:39.397Z,94.09
2017-12-03T11:51:44.737Z,93.06
2017-12-03T11:52:49.786Z,93.88
2017-12-03T11:53:54.511Z,93.82
2017-12-03T11:54:59.264Z,94.14
2017-12-03T11:56:04.040Z,94.44
2017-12-03T11:57:08.877Z,94.42
2017-12-03T11:58:13.591Z,94.43
2017-12-03T11:59:18.700Z,94.58
2017-12-03T12:00:23.441Z,93.76
2017-12-03T12:01:28.120Z,93.06
2017-12-03T12:02:32.849Z,93.27
2017-12-03T12:03:37.499Z,93.48
2017-12-03T12:04:42.173Z,93.83
2017-12-03T12:05:47.159Z,93.38
2017-12-03T12:06:51.873Z,94.14
2017-12-03T12:07:56.625Z,94.05
2017-12-03T12:09:01.407Z,93.84
2017-12-03T12:10:06.077Z,92.95
2017-12-03T12:11:10.795Z,93.27
2017-12-03T12:12:15.337Z,93.63
2017-12-03T12:13:19.883Z,92.99
2017-12-03T12:14:24.579Z,93.25
2017-12-03T12:15:29.216Z,93.41
2017-12-03T12:16:33.845Z,93.17
2017-12-03T12:17:38.637Z,92.38
2017-12-03T12:18:43.786Z,92.23
2017-12-03T12:19:48.684Z,91.90
2017-12-03T12:20:53.441Z,92.82
2017-12-03T12:21:58.260Z,92.96
2017-12-03T12:23:03.108Z,92.16
2017-12-03T12:24:07.875Z,92.22
2017-12-03T12:25:12.935Z,93.15
2017-12-03T12:26:17.726Z,93.08
2017-12-03T12:27:22.513Z,93.01
2017-12-03T12:28:27.259Z,91.60
2017-12-03T12:29:32.194Z,92.43
2017-12-03T12:30:36.925Z,92.74
2017-12-03T12:31:42.081Z,92.74
2017-12-03T12:32:46.902Z,92.60
2017-12-03T12:33:51.730Z,91.90
2017-12-03T12:34:56.738Z,92.54
2017-12-03T12:36:01.720Z,92.71
2017-12-03T12:37:06.672Z,92.77
2017-12-03T12:38:12.443Z,92.34
2017-12-03T12:39:20.272Z,91.75
2017-12-03T12:40:25.055Z,92.00
2017-12-03T12:41:29.655Z,92.93
2017-12-03T12:42:34.502Z,93.54
2017-12-03T12:43:39.629Z,93.92
2017-12-03T12:44:44.327Z,93.42
2017-12-03T12:45:49.818Z,93.54
2017-12-03T12:46:54.749Z,93.01
2017-12-03T12:47:59.570Z,93.55
2017-12-03T12:49:04.365Z,93.68
2017-12-03T12:50:09.470Z,93.65
2017-12-03T12:51:14.200Z,93.42
2017-12-03T12:52:18.987Z,93.48
2017-12-03T12:53:23.855Z,93.28
2017-12-03T12:54:28.668Z,94.41
2017-12-03T12:55:33.403Z,93.66
2017-12-03T12:56:38.101Z,93.60
2017-12-03T12:57:42.754Z,93.40
2017-12-03T12:58:47.501Z,93.53
2017-12-03T12:59:52.229Z,93.05
2017-12-03T13:00:57.226Z,93.74
2017-12-03T13:02:01.908Z,93.63
2017-12-03T13:03:06.538Z,93.19
2017-12-03T13:04:11.458Z,93.06
2017-12-03T13:05:19.494Z,93.16
2017-12-03T13:06:24.354Z,93.34
2017-12-03T13:07:29.477Z,93.72
2017-12-03T13:08:34.198Z,92.40
2017-12-03T13:09:38.947Z,92.70
2017-12-03T13:10:43.758Z,92.45
2017-12-03T13:11:48.484Z,93.44
2017-12-03T13:12:53.213Z,93.40
2017-12-03T13:13:58.366Z,92.79
2017-12-03T13:15:03.146Z,91.98
2017-12-03T13:16:08.415Z,92.47
2017-12-03T13:17:13.043Z,93.40
2017-12-03T13:18:17.670Z,92.00
2017-12-03T13:19:22.294Z,90.87
2017-12-03T13:20:27.252Z,91.65
2017-12-03T13:21:31.968Z,91.73
2017-12-03T13:22:36.738Z,92.81
2017-12-03T13:23:41.559Z,92.84
2017-12-03T13:24:46.284Z,92.71
2017-12-03T13:25:50.924Z,92.15
2017-12-03T13:26:56.177Z,92.66
2017-12-03T13:28:00.819Z,93.29
2017-12-03T13:29:05.342Z,95.18
2017-12-03T13:30:10.143Z,95.21
2017-12-03T13:31:15.024Z,93.00
2017-12-03T13:32:19.828Z,92.35
2017-12-03T13:33:25.074Z,92.19
2017-12-03T13:34:29.841Z,92.72
2017-12-03T13:35:34.505Z,92.40
2017-12-03T13:36:39.273Z,92.90
2017-12-03T13:37:44.188Z,93.59
2017-12-03T13:38:48.923Z,94.04
2017-12-03T13:39:54.147Z,93.84
2017-12-03T13:40:59.279Z,93.30
2017-12-03T13:42:04.041Z,93.33
2017-12-03T13:43:10.604Z,93.78
2017-12-03T13:44:15.411Z,93.51
2017-12-03T13:45:20.153Z,93.03
2017-12-03T13:46:25.259Z,93.84
2017-12-03T13:47:30.386Z,93.88
2017-12-03T13:48:35.123Z,94.16
2017-12-03T13:49:39.931Z,94.30
2017-12-03T13:50:44.680Z,93.99
2017-12-03T13:51:49.438Z,94.27
2017-12-03T13:52:54.586Z,93.46
2017-12-03T13:53:59.370Z,92.75
2017-12-03T13:55:04.073Z,92.66